Meath Environmental Platform

Observations for Trim Market St

Time AQI Temp °C Hum % Pres Pa CO μg/m³ H₂S μg/m³ NO μg/m³ NO₂ μg/m³ O₃ μg/m³ SO₂ μg/m³ PM1 μg/m³ PM2.5 μg/m³ PM10 μg/m³
Wednesday 19 August 2026
02:09 2 15.1 85 2,147,483,647 0.29 0 2.36 9.61 55.56 0 2.14 2.34 7
02:08 2 15.1 85 2,147,483,647 0.3 0 2.35 6.37 40.69 0 2.14 3.73 7
02:07 2 15.1 85 2,147,483,647 0.29 0 2.35 7.63 44.95 0 0.71 2.8 5.92
02:06 2 15.1 85 2,147,483,647 0.28 0 2.38 6.91 49.51 0 1.43 1.87 4.85
02:03 2 15.1 85 2,147,483,647 0.29 0 2.37 7.86 51.23 0 1.43 2.81 6.46
02:02 2 15.1 85 2,147,483,647 0.29 0 2.37 7.06 45.72 0 1.43 2.81 5.92
02:01 2 15.1 85 2,147,483,647 0.28 0 2.34 7.06 42.95 0 2.14 3.27 6.46
01:59 2 15.1 85 2,147,483,647 0.29 0 2.34 7.25 47.37 0 2.14 3.27 7.53
01:56 2 15.1 85 2,147,483,647 0.28 0 2.39 6.83 40.21 0 2.85 3.28 8.07
01:51 2 15.1 85 2,147,483,647 0.29 0 2.38 7.02 50.16 0 2.85 3.14 6.46
01:48 2 15.1 85 2,147,483,647 0.28 0 2.38 7.12 46.18 0 1.43 3.28 7.53
01:47 2 15.1 85 2,147,483,647 0.28 0 2.35 7.02 43.05 0 1.43 1.88 6.99
01:41 2 15.1 85 2,147,483,647 0.29 0 2.34 10.21 60.5 0 2.14 3.28 6.46
01:40 2 15.1 85 2,147,483,647 0.29 0 2.34 6.82 41.7 0 2.14 3.28 6.46
01:39 2 15.1 85 2,147,483,647 0.28 0 2.39 6.69 43.03 0 2.14 2.82 5.92
01:38 2 15.1 85 2,147,483,647 0.29 0 2.38 6.1 41.96 0 1.43 2.35 5.92
01:37 2 15.1 85 2,147,483,647 0.3 0 2.38 7.37 50.06 0 2.14 2.82 5.92
01:36 2 15.1 85 2,147,483,647 0.29 0 2.38 6.42 40.6 0 2.14 4.21 7.53
01:35 2 15.1 85 2,147,483,647 0.28 0 2.38 7.08 43.71 0 1.43 3.28 6.46
01:34 2 15.1 85 2,147,483,647 0.29 0 2.35 7.94 49.95 0 2.14 3.75 7.53